Flight Track Log - Related Links

Times and Time Zones

All times are in EDT time to prevent confusion due to time zone crossing. See the DAL1981 flight status page for this flight to view local times or setup timezone preferences in your user account.


Time Position Orientation Groundspeed Altitude Reporting Facility
EDT Latitude Longitude Course Direction KTS MPH feet Rate Location/Type
Sat 06:12:28 AM 42.7631 -73.8089 200° South 135 155 1,400  Level Boston Center
Sat 06:13:10 AM 42.7983 -73.8208 346° North 196 226 2,700 1,975 Climbing Boston Center
Sat 06:13:47 AM 42.8356 -73.8500 330° Northwest 255 293 4,000 2,784 Climbing Boston Center
Sat 06:14:47 AM 42.8847 -73.9108 318° Northwest 257 296 7,200 2,950 Climbing Boston Center
Sat 06:15:00 AM 42.5128 -74.1323 200° South  Level Estimated
Sat 06:15:47 AM 42.8711 -73.9983 258° West 217 250 9,900  Level Boston Center
Sat 06:16:00 AM 42.4338 -74.2419 198° South  Level Estimated
Sat 06:16:47 AM 42.8264 -74.0792 233° Southwest 245 282 11,600  Level Boston Center
Sat 06:17:00 AM 42.3548 -74.3511 200° South  Level Estimated
Sat 06:17:47 AM 42.7200 -74.0847 182° South 255 293 12,900  Level Boston Center
Sat 06:18:47 AM 42.5806 -74.0669 175° South 303 349 15,700 2,450 Climbing Boston Center
Sat 06:19:47 AM 42.4722 -74.0558 176° South 391 450 17,800 2,250 Climbing Boston Center
Sat 06:20:47 AM 42.3411 -74.0494 178° South 419 482 20,200 2,050 Climbing Boston Center
Sat 06:21:47 AM 42.2183 -74.0381 176° South 439 505 21,900 1,600 Climbing Boston Center
Sat 06:22:47 AM 42.1014 -74.0461 183° South 451 519 23,400 1,800 Climbing Boston Center
Sat 06:23:47 AM 41.9783 -74.0514 182° South 457 526 25,500 2,000 Climbing Boston Center
Sat 06:24:47 AM 41.8533 -74.0594 183° South 457 526 27,400 1,903 Climbing Boston Center
Sat 06:26:53 AM 41.5961 -74.0886 185° South 434 499 31,400 1,476 Climbing New York Center
Sat 06:27:54 AM 41.5169 -74.1594 214° Southwest 397 457 32,000 293 Climbing New York Center
Sat 06:28:56 AM 41.4269 -74.2489 217° Southwest 397 457 32,000  Level New York Center
Sat 06:29:55 AM 41.3408 -74.3439 220° Southwest 408 470 32,000  Level New York Center
Sat 06:30:54 AM 41.2544 -74.4414 220° Southwest 408 470 32,000  Level New York Center
Sat 06:31:53 AM 41.1683 -74.5306 218° Southwest 408 470 32,000  Level New York Center
Sat 06:32:55 AM 41.0819 -74.6303 221° Southwest 408 470 32,000  Level New York Center
Sat 06:33:54 AM 40.9978 -74.7189 218° Southwest 408 470 32,000  Level New York Center
Sat 06:34:55 AM 40.9089 -74.8153 219° Southwest 408 470 32,000  Level New York Center
Sat 06:35:55 AM 40.8267 -74.9092 221° Southwest 408 470 32,000  Level New York Center
Sat 06:36:56 AM 40.7422 -75.0000 219° Southwest 408 470 32,000  Level New York Center
Sat 06:37:53 AM 40.6597 -75.0906 220° Southwest 403 464 32,000  Level New York Center
Sat 06:38:54 AM 40.5728 -75.1861 220° Southwest 403 464 32,000  Level New York Center
Sat 06:39:55 AM 40.4858 -75.2789 219° Southwest 403 464 32,000  Level New York Center
Sat 06:40:55 AM 40.4011 -75.3689 219° Southwest 403 464 32,000  Level New York Center
Sat 06:41:54 AM 40.3183 -75.4611 220° Southwest 398 458 32,000  Level New York Center
Sat 06:42:55 AM 40.2311 -75.5558 220° Southwest 398 458 32,000  Level New York Center
Sat 06:43:53 AM 40.1681 -75.6711 234° Southwest 398 458 32,000  Level New York Center
Sat 06:44:55 AM 40.1089 -75.7919 237° Southwest 398 458 32,000  Level New York Center
Sat 06:46:58 AM 39.9772 -76.0544 237° Southwest 402 463 32,000 464 Level Washington Center
Sat 06:47:56 AM 39.9164 -76.1731 236° Southwest 402 463 33,400 1,000 Climbing Washington Center
Sat 06:48:58 AM 39.8533 -76.2942 236° Southwest 397 457 34,000 293 Climbing Washington Center
Sat 06:49:59 AM 39.7942 -76.4097 236° Southwest 397 457 34,000  Level Washington Center
Sat 06:50:56 AM 39.7497 -76.5064 239° Southwest 397 457 34,000  Level Washington Center
Sat 06:51:56 AM 39.6758 -76.6294 232° Southwest 397 457 34,000  Level Washington Center
Sat 06:52:56 AM 39.6144 -76.7444 235° Southwest 397 457 34,000  Level Washington Center
Sat 06:53:57 AM 39.5528 -76.8592 235° Southwest 397 457 34,000  Level Washington Center
Sat 06:54:57 AM 39.4933 -76.9739 236° Southwest 397 457 34,000  Level Washington Center
Sat 06:55:59 AM 39.4131 -77.0636 221° Southwest 391 450 34,000  Level Washington Center
Sat 06:56:59 AM 39.3367 -77.1667 226° Southwest 391 450 34,000  Level Washington Center
Sat 06:57:57 AM 39.2644 -77.2669 227° Southwest 391 450 34,000  Level Washington Center
Sat 06:58:58 AM 39.1919 -77.3697 228° Southwest 396 456 34,000  Level Washington Center
Sat 06:59:59 AM 39.1156 -77.4750 227° Southwest 396 456 34,000  Level Washington Center
Sat 07:00:56 AM 39.0322 -77.5878 226° Southwest 401 461 34,000  Level Washington Center
Sat 07:01:59 AM 38.9642 -77.6819 227° Southwest 401 461 34,000  Level Washington Center
Sat 07:02:58 AM 38.8786 -77.7969 226° Southwest 401 461 34,000  Level Washington Center
Sat 07:03:59 AM 38.8014 -77.9064 228° Southwest 408 470 34,000  Level Washington Center
Sat 07:04:56 AM 38.7244 -78.0131 227° Southwest 408 470 34,000  Level Washington Center
Sat 07:05:58 AM 38.6472 -78.1169 226° Southwest 413 475 34,000  Level Washington Center
Sat 07:06:59 AM 38.5719 -78.2206 227° Southwest 413 475 34,000  Level Washington Center
Sat 07:07:59 AM 38.4947 -78.3239 226° Southwest 413 475 34,000  Level Washington Center
Sat 07:08:57 AM 38.4172 -78.4272 226° Southwest 413 475 34,000  Level Washington Center
Sat 07:09:58 AM 38.3439 -78.5275 227° Southwest 413 475 34,000  Level Washington Center
Sat 07:10:57 AM 38.2833 -78.6100 227° Southwest 413 475 34,000  Level Washington Center
Sat 07:11:59 AM 38.2036 -78.7178 227° Southwest 403 464 34,000  Level Washington Center
Sat 07:12:56 AM 38.1256 -78.8200 226° Southwest 403 464 34,000  Level Washington Center
Sat 07:13:57 AM 38.0522 -78.9169 226° Southwest 403 464 34,000  Level Washington Center
Sat 07:14:58 AM 37.9678 -79.0267 226° Southwest 403 464 34,000  Level Washington Center
Sat 07:15:59 AM 37.8917 -79.1283 227° Southwest 403 464 34,000  Level Washington Center
Sat 07:16:57 AM 37.8200 -79.2275 228° Southwest 398 458 34,000  Level Washington Center
Sat 07:17:57 AM 37.7458 -79.3289 227° Southwest 398 458 34,000  Level Washington Center
Sat 07:18:58 AM 37.6697 -79.4303 227° Southwest 398 458 34,000 197 Level Washington Center
Sat 07:19:59 AM 37.6042 -79.5239 229° Southwest 398 458 34,400 496 Climbing Washington Center
Sat 07:20:59 AM 37.5233 -79.6350 227° Southwest 398 458 35,000 610 Climbing Washington Center
Sat 07:21:57 AM 37.4556 -79.7256 227° Southwest 398 458 35,600 500 Climbing Washington Center
Sat 07:22:59 AM 37.3786 -79.8311 227° Southwest 417 480 36,000 200 Climbing Washington Center
Sat 07:23:57 AM 37.3042 -79.9289 226° Southwest 398 458 36,000  Level Washington Center
Sat 07:26:12 AM 37.1333 -80.1597 227° Southwest 384 442 36,000  Level Atlanta Center
Sat 07:27:12 AM 37.0575 -80.2625 227° Southwest 384 442 36,000  Level Atlanta Center
Sat 07:28:12 AM 36.9914 -80.3514 227° Southwest 384 442 36,000  Level Atlanta Center
Sat 07:29:12 AM 36.9172 -80.4508 227° Southwest 389 448 36,000  Level Atlanta Center
Sat 07:30:12 AM 36.8408 -80.5503 226° Southwest 389 448 36,000  Level Atlanta Center
Sat 07:31:12 AM 36.7664 -80.6519 228° Southwest 389 448 36,000  Level Atlanta Center
Sat 07:32:12 AM 36.6961 -80.7508 228° Southwest 383 441 36,000  Level Atlanta Center
Sat 07:33:12 AM 36.6217 -80.8469 226° Southwest 383 441 36,000  Level Atlanta Center
Sat 07:34:12 AM 36.5469 -80.9456 227° Southwest 383 441 36,000  Level Atlanta Center
Sat 07:35:12 AM 36.4742 -81.0439 227° Southwest 388 447 36,000  Level Atlanta Center
Sat 07:36:12 AM 36.3994 -81.1394 226° Southwest 388 447 36,000  Level Atlanta Center
Sat 07:37:12 AM 36.3267 -81.2350 227° Southwest 381 438 36,000  Level Atlanta Center
Sat 07:38:12 AM 36.2558 -81.3300 227° Southwest 376 433 36,000  Level Atlanta Center
Sat 07:39:12 AM 36.1828 -81.4253 226° Southwest 381 438 36,000  Level Atlanta Center
Sat 07:40:12 AM 36.1056 -81.5253 226° Southwest 381 438 36,000  Level Atlanta Center
Sat 07:41:12 AM 36.0364 -81.6172 227° Southwest 381 438 36,000  Level Atlanta Center
Sat 07:42:12 AM 35.9653 -81.7067 226° Southwest 381 438 36,000  Level Atlanta Center
Sat 07:43:12 AM 35.8919 -81.8036 227° Southwest 381 438 36,000  Level Atlanta Center
Sat 07:44:12 AM 35.8206 -81.8953 226° Southwest 381 438 36,000  Level Atlanta Center
Sat 07:45:12 AM 35.7511 -81.9867 227° Southwest 380 437 36,000  Level Atlanta Center
Sat 07:46:12 AM 35.6756 -82.0806 225° Southwest 380 437 36,000 -500 Level Atlanta Center
Sat 07:47:12 AM 35.6039 -82.1717 226° Southwest 380 437 35,000 -500 Descending Atlanta Center
Sat 07:48:12 AM 35.5281 -82.2653 225° Southwest 380 437 35,000 -450 Level Atlanta Center
Sat 07:49:12 AM 35.4522 -82.3561 224° Southwest 385 443 34,100 -700 Descending Atlanta Center
Sat 07:50:12 AM 35.3700 -82.4469 222° Southwest 392 451 33,600 -700 Descending Atlanta Center
Sat 07:51:12 AM 35.2897 -82.5350 222° Southwest 397 457 32,700 -800 Descending Atlanta Center
Sat 07:52:12 AM 35.2175 -82.6125 221° Southwest 397 457 32,000 -750 Descending Atlanta Center
Sat 07:53:12 AM 35.1372 -82.7028 223° Southwest 392 451 31,200 -1,000 Descending Atlanta Center
Sat 07:54:12 AM 35.0569 -82.7956 223° Southwest 392 451 30,000 -1,350 Descending Atlanta Center
Sat 07:55:12 AM 34.9700 -82.8906 222° Southwest 397 457 28,500 -1,400 Descending Atlanta Center
Sat 07:56:12 AM 34.8792 -82.9831 220° Southwest 417 480 27,200 -1,000 Descending Atlanta Center
Sat 07:57:12 AM 34.7903 -83.0803 222° Southwest 435 501 26,500 -650 Descending Atlanta Center
Sat 07:58:12 AM 34.6992 -83.1797 222° Southwest 435 501 25,900 -750 Descending Atlanta Center
Sat 07:59:12 AM 34.6100 -83.2767 222° Southwest 435 501 25,000 -950 Descending Atlanta Center
Sat 08:00:12 AM 34.5125 -83.3808 221° Southwest 435 501 24,000 -1,500 Descending Atlanta Center
Sat 08:01:12 AM 34.4253 -83.4772 222° Southwest 430 495 22,000 -2,550 Descending Atlanta Center
Sat 08:02:12 AM 34.3403 -83.5683 222° Southwest 425 489 18,900 -3,050 Descending Atlanta Center
Sat 08:03:12 AM 34.2569 -83.6592 222° Southwest 413 475 15,900 -2,950 Descending Atlanta Center
Sat 08:04:12 AM 34.1758 -83.7475 222° Southwest 407 468 13,000 -1,900 Descending Atlanta Center
Sat 08:05:12 AM 34.1008 -83.8306 223° Southwest 386 444 12,100 -814 Descending Atlanta Center
Sat 08:06:10 AM 34.0333 -83.9000 220° Southwest 369 425 11,400 -864 Descending Atlanta TRACON
Sat 08:07:10 AM 33.9500 -83.9667 214° Southwest 363 418 10,400 -700 Descending Atlanta TRACON
Sat 08:08:10 AM 33.8500 -83.9667 180° South 340 391 10,000 -650 Descending Atlanta TRACON
Sat 08:09:10 AM 33.7667 -83.9667 180° South 278 320 9,100 -1,328 Descending Atlanta TRACON
Sat 08:10:12 AM 33.6961 -83.9764 187° South 290 334 7,300 -984 Descending Atlanta Center
Sat 08:11:12 AM 33.6378 -84.0089 205° Southwest 245 282 7,100 -600 Descending Atlanta Center
Sat 08:12:12 AM 33.6314 -84.0811 264° West 193 222 6,100 -919 Descending Atlanta Center
Sat 08:13:16 AM 33.6333 -84.1500 272° West 185 213 5,200 -919 Descending Atlanta TRACON
Sat 08:14:16 AM 33.6333 -84.2167 270° West 186 214 4,200 -950 Descending Atlanta TRACON
Sat 08:15:16 AM 33.6333 -84.2833 270° West 184 212 3,300 -900 Descending Atlanta TRACON

Login

Don't have an account? Register now (free) for customized features, flight alerts, and more!